createdAt,value
2023-02-03T00:00:19.993Z,9.55
2023-02-03T00:01:51.553Z,10.40
2023-02-03T00:03:33.060Z,13.91
2023-02-03T00:05:04.435Z,13.63
2023-02-03T00:06:36.089Z,16.66
2023-02-03T00:08:07.472Z,10.49
2023-02-03T00:09:38.992Z,12.00
2023-02-03T00:11:10.400Z,13.65
2023-02-03T00:12:41.786Z,13.95
2023-02-03T00:14:13.111Z,10.33
2023-02-03T00:15:49.579Z,10.68
2023-02-03T00:17:20.981Z,9.78
2023-02-03T00:18:52.263Z,9.83
2023-02-03T00:20:23.841Z,13.86
2023-02-03T00:21:55.215Z,13.58
2023-02-03T00:23:26.507Z,11.88
2023-02-03T00:24:58.138Z,14.17
2023-02-03T00:26:29.636Z,9.27
2023-02-03T00:28:01.158Z,8.65
2023-02-03T00:29:32.460Z,10.21
2023-02-03T00:31:03.859Z,14.56
2023-02-03T00:32:35.340Z,12.21
2023-02-03T00:34:06.729Z,10.60
2023-02-03T00:35:38.278Z,15.49
2023-02-03T00:37:09.681Z,16.27
2023-02-03T00:38:41.035Z,11.56
2023-02-03T00:40:12.393Z,12.36
2023-02-03T00:41:43.960Z,15.69
2023-02-03T00:43:15.246Z,10.97
2023-02-03T00:44:46.543Z,13.74
2023-02-03T00:46:17.958Z,9.48
2023-02-03T00:47:49.277Z,13.52
2023-02-03T00:49:20.539Z,13.28
2023-02-03T00:50:51.886Z,9.77
2023-02-03T00:52:23.187Z,10.58
2023-02-03T00:53:54.591Z,11.54
2023-02-03T00:55:26.381Z,11.77
2023-02-03T00:56:57.718Z,12.38
2023-02-03T00:58:29.098Z,10.52
2023-02-03T01:00:00.399Z,14.76
2023-02-03T01:01:36.745Z,12.10
2023-02-03T01:03:08.163Z,12.05
2023-02-03T01:04:39.653Z,14.39
2023-02-03T01:06:10.930Z,10.31
2023-02-03T01:07:42.486Z,14.87
2023-02-03T01:09:13.799Z,11.49
2023-02-03T01:10:45.478Z,14.10
2023-02-03T01:12:16.913Z,13.28
2023-02-03T01:13:48.211Z,12.02
2023-02-03T01:15:19.659Z,11.52
2023-02-03T01:16:51.022Z,11.31
2023-02-03T01:18:22.396Z,9.29
2023-02-03T01:19:53.720Z,12.16
2023-02-03T01:21:25.040Z,15.70
2023-02-03T01:22:56.720Z,10.78
2023-02-03T01:24:28.086Z,10.92
2023-02-03T01:25:59.495Z,13.56
2023-02-03T01:27:30.910Z,13.19
2023-02-03T01:29:02.219Z,16.18
2023-02-03T01:30:33.717Z,14.14
2023-02-03T01:32:05.020Z,14.98
2023-02-03T01:33:36.374Z,10.21
2023-02-03T01:35:07.706Z,13.86
2023-02-03T01:36:39.212Z,11.01
2023-02-03T01:38:10.710Z,11.38
2023-02-03T01:39:42.154Z,11.16
2023-02-03T01:41:13.558Z,10.70
2023-02-03T01:42:45.001Z,10.51
2023-02-03T01:44:16.315Z,11.40
2023-02-03T01:45:47.842Z,15.23
2023-02-03T01:47:19.534Z,9.84
2023-02-03T01:48:51.168Z,11.37
2023-02-03T01:50:22.562Z,12.29
2023-02-03T01:51:53.963Z,10.18
2023-02-03T01:53:25.301Z,14.48
2023-02-03T01:54:56.828Z,13.47
2023-02-03T01:56:28.116Z,9.76
2023-02-03T01:57:59.510Z,12.31
2023-02-03T01:59:30.885Z,11.33
2023-02-03T02:01:02.183Z,13.01
2023-02-03T02:02:33.482Z,10.27
2023-02-03T02:04:04.984Z,9.94
2023-02-03T02:05:36.305Z,11.21
2023-02-03T02:07:07.655Z,11.70
2023-02-03T02:08:39.015Z,10.45
2023-02-03T02:10:10.461Z,10.16
2023-02-03T02:11:42.045Z,10.79
2023-02-03T02:13:13.423Z,11.84
2023-02-03T02:14:44.959Z,12.02
2023-02-03T02:16:16.629Z,11.35
2023-02-03T02:17:48.103Z,12.71
2023-02-03T02:19:19.611Z,13.69
2023-02-03T02:20:50.911Z,14.42
2023-02-03T02:22:22.369Z,13.95
2023-02-03T02:23:53.762Z,13.05
2023-02-03T02:25:25.073Z,11.40
2023-02-03T02:26:56.743Z,13.66
2023-02-03T02:28:28.087Z,12.27
2023-02-03T02:29:59.507Z,11.52
2023-02-03T02:31:31.179Z,12.80
2023-02-03T02:33:02.491Z,11.92
2023-02-03T02:34:33.831Z,9.39
2023-02-03T02:36:05.225Z,11.54
2023-02-03T02:37:36.550Z,11.84
2023-02-03T02:39:08.136Z,7.54
2023-02-03T02:40:39.689Z,10.54
2023-02-03T02:42:10.984Z,7.47
2023-02-03T02:43:42.411Z,8.27
2023-02-03T02:45:13.814Z,10.27
2023-02-03T02:46:45.256Z,11.15
2023-02-03T02:48:16.563Z,9.83
2023-02-03T02:49:47.980Z,9.85
2023-02-03T02:51:19.279Z,6.09
2023-02-03T02:52:50.729Z,8.61
2023-02-03T02:54:22.040Z,8.37
2023-02-03T02:55:53.380Z,6.74
2023-02-03T02:57:24.685Z,7.01
2023-02-03T02:58:56.017Z,9.11
2023-02-03T03:00:27.734Z,6.37
2023-02-03T03:01:59.271Z,7.48
2023-02-03T03:03:30.688Z,6.49
2023-02-03T03:05:02.174Z,8.28
2023-02-03T03:06:33.715Z,8.80
2023-02-03T03:08:05.037Z,7.00
2023-02-03T03:09:36.361Z,9.81
2023-02-03T03:11:07.645Z,9.25
2023-02-03T03:12:39.037Z,8.22
2023-02-03T03:14:10.463Z,8.80
2023-02-03T03:15:42.141Z,8.10
2023-02-03T03:17:13.392Z,9.89
2023-02-03T03:18:44.739Z,6.21
2023-02-03T03:20:16.285Z,8.25
2023-02-03T03:21:47.700Z,8.37
2023-02-03T03:23:19.032Z,7.81
2023-02-03T03:24:50.350Z,8.61
2023-02-03T03:26:21.750Z,7.43
2023-02-03T03:27:53.273Z,6.32
2023-02-03T03:29:24.686Z,6.77
2023-02-03T03:30:56.205Z,7.11
2023-02-03T03:32:27.629Z,6.44
2023-02-03T03:33:58.953Z,7.95
2023-02-03T03:35:30.472Z,7.70
2023-02-03T03:37:01.885Z,8.23
2023-02-03T03:38:33.200Z,7.12
2023-02-03T03:40:04.491Z,7.40
2023-02-03T03:41:36.048Z,7.13
2023-02-03T03:43:07.726Z,5.91
2023-02-03T03:44:39.214Z,7.36
2023-02-03T03:46:11.033Z,7.66
2023-02-03T03:47:42.336Z,6.61
2023-02-03T03:49:13.832Z,4.82
2023-02-03T03:50:45.259Z,5.92
2023-02-03T03:52:16.700Z,5.68
2023-02-03T03:53:48.410Z,5.84
2023-02-03T03:55:19.859Z,5.54
2023-02-03T03:56:51.159Z,4.86
2023-02-03T03:58:22.488Z,4.42
2023-02-03T03:59:53.937Z,5.21
2023-02-03T04:01:25.509Z,4.89
2023-02-03T04:02:56.924Z,4.95
2023-02-03T04:04:33.203Z,5.30
2023-02-03T04:06:04.534Z,4.67
2023-02-03T04:07:35.859Z,4.68
2023-02-03T04:09:07.364Z,5.07
2023-02-03T04:10:38.775Z,4.55
2023-02-03T04:12:10.368Z,3.38
2023-02-03T04:13:41.792Z,4.27
2023-02-03T04:15:13.139Z,4.23
2023-02-03T04:16:44.428Z,4.43
2023-02-03T04:18:15.768Z,5.64
2023-02-03T04:19:47.227Z,5.32
2023-02-03T04:21:53.703Z,5.07
2023-02-03T04:23:56.866Z,3.96
2023-02-03T04:25:38.421Z,3.87
2023-02-03T04:27:10.428Z,4.46
2023-02-03T04:28:42.787Z,5.17
2023-02-03T04:30:14.212Z,3.14
2023-02-03T04:31:45.629Z,3.36
2023-02-03T04:33:27.026Z,4.09
2023-02-03T04:35:29.750Z,5.11
2023-02-03T04:37:01.042Z,4.09
2023-02-03T04:38:32.435Z,4.52
2023-02-03T04:40:03.796Z,4.02
2023-02-03T04:41:35.116Z,4.80
2023-02-03T04:43:06.410Z,4.54
2023-02-03T04:44:47.990Z,4.03
2023-02-03T04:46:42.729Z,4.22
2023-02-03T04:48:34.191Z,3.23
2023-02-03T04:50:05.791Z,3.85
2023-02-03T04:52:02.108Z,3.18
2023-02-03T04:54:33.517Z,3.18
2023-02-03T04:56:05.032Z,4.77
2023-02-03T04:57:49.736Z,3.80
2023-02-03T04:59:21.473Z,3.98
2023-02-03T05:00:54.210Z,3.76
2023-02-03T05:02:48.485Z,3.58
2023-02-03T05:04:20.550Z,4.56
2023-02-03T05:05:52.344Z,3.10
2023-02-03T05:07:23.914Z,4.32
2023-02-03T05:08:55.669Z,3.83
2023-02-03T05:11:02.541Z,3.22
2023-02-03T05:12:34.363Z,4.40
2023-02-03T05:14:05.897Z,4.34
2023-02-03T05:15:37.820Z,3.86
2023-02-03T05:17:14.781Z,3.90
2023-02-03T05:18:46.283Z,3.18
2023-02-03T05:20:17.805Z,3.82
2023-02-03T05:21:49.127Z,3.40
2023-02-03T05:23:20.566Z,4.90
2023-02-03T05:24:52.154Z,4.45
2023-02-03T05:26:49.928Z,4.09
2023-02-03T05:28:21.367Z,3.45
2023-02-03T05:29:52.680Z,3.86
2023-02-03T05:31:49.199Z,4.54
2023-02-03T05:33:25.985Z,3.78
2023-02-03T05:34:57.731Z,3.93
2023-02-03T05:36:29.345Z,3.29
2023-02-03T05:38:00.959Z,3.74
2023-02-03T05:39:32.696Z,2.73
2023-02-03T05:41:04.758Z,2.36
2023-02-03T05:42:36.365Z,2.64
2023-02-03T05:44:23.325Z,3.56
2023-02-03T05:46:32.175Z,3.19
2023-02-03T05:48:04.217Z,3.72
2023-02-03T05:49:36.287Z,4.24
2023-02-03T05:51:12.975Z,3.92
2023-02-03T05:52:49.312Z,3.29
2023-02-03T05:54:20.610Z,4.07
2023-02-03T05:56:24.687Z,2.99
2023-02-03T05:58:29.576Z,3.43
2023-02-03T06:00:46.617Z,2.94
2023-02-03T06:02:43.655Z,3.56
2023-02-03T06:04:15.341Z,3.26
2023-02-03T06:05:46.936Z,3.11
2023-02-03T06:07:18.613Z,2.88
2023-02-03T06:08:50.025Z,3.14
2023-02-03T06:10:21.597Z,2.74
2023-02-03T06:11:53.192Z,3.03
2023-02-03T06:13:24.801Z,3.01
2023-02-03T06:14:57.924Z,3.19
2023-02-03T06:16:29.784Z,2.86
2023-02-03T06:18:01.902Z,3.40
2023-02-03T06:19:33.201Z,3.44
2023-02-03T06:21:04.800Z,3.36
2023-02-03T06:22:36.097Z,3.34
2023-02-03T06:24:07.390Z,2.98
2023-02-03T06:25:38.822Z,3.20
2023-02-03T06:27:10.224Z,2.43
2023-02-03T06:28:41.559Z,2.74
2023-02-03T06:30:13.054Z,2.90
2023-02-03T06:31:44.648Z,3.07
2023-02-03T06:33:16.146Z,2.96
2023-02-03T06:34:47.418Z,2.68
2023-02-03T06:36:18.786Z,2.76
2023-02-03T06:37:50.212Z,3.08
2023-02-03T06:39:21.640Z,3.16
2023-02-03T06:40:53.435Z,2.97
2023-02-03T06:42:24.877Z,2.72
2023-02-03T06:43:56.190Z,2.67
2023-02-03T06:45:27.598Z,2.90
2023-02-03T06:46:59.129Z,2.34
2023-02-03T06:48:30.623Z,3.71
2023-02-03T06:50:01.964Z,2.89
2023-02-03T06:51:33.297Z,4.08
2023-02-03T06:53:10.921Z,3.88
2023-02-03T06:54:42.611Z,3.62
2023-02-03T06:56:13.878Z,4.16
2023-02-03T06:57:45.254Z,3.01
2023-02-03T06:59:16.561Z,3.80
2023-02-03T07:00:47.978Z,3.39
2023-02-03T07:02:19.629Z,3.30
2023-02-03T07:03:51.035Z,3.73
2023-02-03T07:05:22.437Z,3.25
2023-02-03T07:06:54.068Z,3.37
2023-02-03T07:08:26.424Z,3.51
2023-02-03T07:09:57.925Z,2.41
2023-02-03T07:11:29.408Z,2.63
2023-02-03T07:13:00.724Z,2.68
2023-02-03T07:14:32.126Z,3.57
2023-02-03T07:16:03.625Z,3.26
2023-02-03T07:17:35.337Z,3.78
2023-02-03T07:19:06.700Z,3.89
2023-02-03T07:20:38.009Z,3.38
2023-02-03T07:22:09.246Z,3.14
2023-02-03T07:23:40.582Z,3.73
2023-02-03T07:25:11.987Z,4.28
2023-02-03T07:26:43.311Z,4.32
2023-02-03T07:28:14.659Z,3.94
2023-02-03T07:29:46.023Z,4.58
2023-02-03T07:31:19.571Z,3.96
2023-02-03T07:32:53.161Z,4.25
2023-02-03T07:34:24.444Z,3.33
2023-02-03T07:35:55.860Z,3.67
2023-02-03T07:37:27.185Z,4.51
2023-02-03T07:38:58.581Z,5.10
2023-02-03T07:40:30.209Z,5.07
2023-02-03T07:42:01.815Z,4.20
2023-02-03T07:43:33.141Z,3.83
2023-02-03T07:45:04.542Z,5.43
2023-02-03T07:46:36.013Z,5.15
2023-02-03T07:48:07.655Z,3.95
2023-02-03T07:49:39.015Z,5.16
2023-02-03T07:51:10.407Z,4.82
2023-02-03T07:52:41.815Z,5.30
2023-02-03T07:54:13.236Z,4.56
2023-02-03T07:55:44.721Z,3.92
2023-02-03T07:57:16.177Z,3.51
2023-02-03T07:58:47.451Z,3.15
2023-02-03T08:00:18.771Z,3.27
2023-02-03T08:01:50.184Z,4.59
2023-02-03T08:03:22.206Z,3.31
2023-02-03T08:04:53.706Z,4.26
2023-02-03T08:06:25.026Z,3.27
2023-02-03T08:07:56.369Z,3.83
2023-02-03T08:09:27.703Z,3.68
2023-02-03T08:10:58.989Z,4.03
2023-02-03T08:12:30.388Z,3.06
2023-02-03T08:14:01.772Z,3.15
2023-02-03T08:15:33.146Z,4.30
2023-02-03T08:17:04.988Z,4.05
2023-02-03T08:18:36.574Z,3.43
2023-02-03T08:20:07.986Z,3.08
2023-02-03T08:21:39.330Z,3.67
2023-02-03T08:23:10.608Z,3.88
2023-02-03T08:24:42.071Z,3.85
2023-02-03T08:26:13.518Z,3.64
2023-02-03T08:27:45.862Z,3.72
2023-02-03T08:29:17.290Z,3.48
2023-02-03T08:30:49.135Z,4.62
2023-02-03T08:32:21.054Z,4.99
2023-02-03T08:33:52.963Z,4.74
2023-02-03T08:35:24.283Z,3.64
2023-02-03T08:36:57.129Z,3.26
2023-02-03T08:38:28.661Z,3.98
2023-02-03T08:40:00.658Z,3.82
2023-02-03T08:41:56.417Z,3.08
2023-02-03T08:43:30.599Z,2.94
2023-02-03T08:45:04.052Z,3.76
2023-02-03T08:46:36.874Z,3.38
2023-02-03T08:48:13.714Z,3.21
2023-02-03T08:49:45.333Z,3.75
2023-02-03T08:51:21.907Z,3.78
2023-02-03T08:52:53.330Z,4.16
2023-02-03T08:54:25.317Z,3.29
2023-02-03T08:56:16.952Z,2.99
2023-02-03T08:57:53.784Z,3.72
2023-02-03T08:59:25.511Z,3.38
2023-02-03T09:01:02.081Z,3.97
2023-02-03T09:02:33.770Z,3.86
2023-02-03T09:04:05.443Z,4.06
2023-02-03T09:05:37.293Z,4.08
2023-02-03T09:07:09.102Z,4.10
2023-02-03T09:08:45.651Z,4.06
2023-02-03T09:10:18.311Z,3.45
2023-02-03T09:11:49.889Z,3.75
2023-02-03T09:13:21.588Z,3.69
2023-02-03T09:14:53.805Z,3.45
2023-02-03T09:16:25.326Z,4.32
2023-02-03T09:17:56.960Z,4.08
2023-02-03T09:19:28.499Z,5.21
2023-02-03T09:21:00.166Z,4.13
2023-02-03T09:22:32.046Z,4.42
2023-02-03T09:24:04.788Z,4.58
2023-02-03T09:25:36.129Z,3.81
2023-02-03T09:27:07.640Z,4.61
2023-02-03T09:28:43.967Z,4.74
2023-02-03T09:30:25.698Z,4.53
2023-02-03T09:31:57.135Z,3.99
2023-02-03T09:33:28.467Z,4.38
2023-02-03T09:34:59.899Z,3.65
2023-02-03T09:36:31.326Z,4.97
2023-02-03T09:38:02.656Z,4.16
2023-02-03T09:39:33.961Z,5.38
2023-02-03T09:41:11.553Z,3.57
2023-02-03T09:42:43.512Z,4.39
2023-02-03T09:44:14.801Z,3.80
2023-02-03T09:46:01.774Z,2.77
2023-02-03T09:47:34.674Z,3.44
2023-02-03T09:49:06.168Z,3.46
2023-02-03T09:50:37.503Z,3.37
2023-02-03T09:52:08.756Z,4.11
2023-02-03T09:54:10.023Z,2.96
2023-02-03T09:55:41.448Z,3.77
2023-02-03T09:57:50.921Z,4.39
2023-02-03T09:59:22.953Z,4.01
2023-02-03T10:01:00.199Z,4.40
2023-02-03T10:02:32.126Z,3.15
2023-02-03T10:04:03.964Z,4.07
2023-02-03T10:05:35.203Z,3.75
2023-02-03T10:07:06.819Z,3.78
2023-02-03T10:08:38.191Z,3.86
2023-02-03T10:10:09.575Z,3.73
2023-02-03T10:11:41.013Z,4.49
2023-02-03T10:13:12.590Z,4.86
2023-02-03T10:14:43.941Z,4.28
2023-02-03T10:16:15.300Z,3.46
2023-02-03T10:17:47.309Z,4.21
2023-02-03T10:19:19.018Z,5.42
2023-02-03T10:20:50.451Z,5.44
2023-02-03T10:22:21.825Z,3.60
2023-02-03T10:23:53.121Z,4.28
2023-02-03T10:25:24.457Z,3.89
2023-02-03T10:27:00.944Z,5.40
2023-02-03T10:28:32.358Z,3.26
2023-02-03T10:30:03.665Z,3.37
2023-02-03T10:31:35.285Z,4.33
2023-02-03T10:33:07.038Z,4.97
2023-02-03T10:34:38.635Z,5.04
2023-02-03T10:36:10.225Z,5.69
2023-02-03T10:37:41.643Z,5.06
2023-02-03T10:39:21.696Z,5.84
2023-02-03T10:40:53.666Z,4.73
2023-02-03T10:42:25.051Z,4.77
2023-02-03T10:43:57.656Z,4.87
2023-02-03T10:45:29.205Z,4.13
2023-02-03T10:47:00.921Z,4.53
2023-02-03T10:48:32.333Z,5.17
2023-02-03T10:50:03.653Z,4.89
2023-02-03T10:51:35.072Z,5.00
2023-02-03T10:53:06.495Z,5.50
2023-02-03T10:54:38.167Z,5.33
2023-02-03T10:56:09.461Z,5.24
2023-02-03T10:57:40.782Z,4.04
2023-02-03T10:59:22.809Z,4.59
2023-02-03T11:00:54.112Z,6.01
2023-02-03T11:02:25.436Z,4.05
2023-02-03T11:03:56.714Z,5.80
2023-02-03T11:05:28.957Z,4.44
2023-02-03T11:07:00.368Z,4.84
2023-02-03T11:08:31.701Z,4.84
2023-02-03T11:10:03.039Z,5.43
2023-02-03T11:11:34.395Z,5.36
2023-02-03T11:13:05.707Z,4.41
2023-02-03T11:14:37.175Z,5.78
2023-02-03T11:16:09.368Z,4.85
2023-02-03T11:17:40.773Z,4.60
2023-02-03T11:19:12.307Z,4.71
2023-02-03T11:20:43.953Z,4.45
2023-02-03T11:22:15.339Z,3.96
2023-02-03T11:23:46.686Z,4.95
2023-02-03T11:25:18.013Z,3.55
2023-02-03T11:26:49.431Z,3.99
2023-02-03T11:28:20.874Z,4.05
2023-02-03T11:29:52.273Z,3.80
2023-02-03T11:31:24.074Z,2.68
2023-02-03T11:32:55.818Z,3.33
2023-02-03T11:34:27.402Z,3.66
2023-02-03T11:35:58.670Z,4.18
2023-02-03T11:37:30.005Z,3.48
2023-02-03T11:39:01.417Z,3.46
2023-02-03T11:40:32.754Z,3.28
2023-02-03T11:42:09.152Z,3.33
2023-02-03T11:43:45.579Z,3.56
2023-02-03T11:45:17.035Z,2.67
2023-02-03T11:46:49.679Z,2.75
2023-02-03T11:48:21.352Z,3.74
2023-02-03T11:49:52.722Z,3.48
2023-02-03T11:51:24.045Z,3.59
2023-02-03T11:52:55.685Z,2.88
2023-02-03T11:54:27.404Z,2.44
2023-02-03T11:55:58.727Z,2.85
2023-02-03T11:57:30.093Z,2.74
2023-02-03T11:59:01.466Z,3.56
2023-02-03T12:00:32.919Z,2.95
2023-02-03T12:02:04.501Z,2.65
2023-02-03T12:03:35.822Z,2.92
2023-02-03T12:05:07.103Z,3.50
2023-02-03T12:06:38.622Z,2.47
2023-02-03T12:08:10.029Z,3.53
2023-02-03T12:09:41.494Z,2.97
2023-02-03T12:11:13.008Z,3.62
2023-02-03T12:12:45.991Z,3.06
2023-02-03T12:14:17.619Z,3.62
2023-02-03T12:15:49.582Z,2.92
2023-02-03T12:17:23.672Z,2.79
2023-02-03T12:18:55.514Z,2.41
2023-02-03T12:20:27.337Z,3.07
2023-02-03T12:21:59.263Z,2.61
2023-02-03T12:23:31.381Z,3.18
2023-02-03T12:25:02.894Z,3.12
2023-02-03T12:26:34.378Z,2.67
2023-02-03T12:28:05.890Z,3.22
2023-02-03T12:29:37.422Z,3.19
2023-02-03T12:31:09.043Z,2.16
2023-02-03T12:32:40.526Z,3.28
2023-02-03T12:34:11.835Z,3.13
2023-02-03T12:35:43.414Z,2.61
2023-02-03T12:37:14.831Z,3.33
2023-02-03T12:38:46.091Z,3.14
2023-02-03T12:40:17.642Z,3.07
2023-02-03T12:41:49.793Z,2.92
2023-02-03T12:43:22.388Z,3.54
2023-02-03T12:44:54.057Z,3.13
2023-02-03T12:46:30.611Z,2.98
2023-02-03T12:48:12.228Z,3.46
2023-02-03T12:49:45.035Z,3.17
2023-02-03T12:51:16.573Z,3.41
2023-02-03T12:52:47.928Z,3.36
2023-02-03T12:54:19.310Z,3.77
2023-02-03T12:55:50.662Z,3.03
2023-02-03T12:57:21.965Z,3.15
2023-02-03T12:58:53.406Z,3.47
2023-02-03T13:00:24.755Z,3.84
2023-02-03T13:01:56.213Z,4.20
2023-02-03T13:03:27.522Z,3.44
2023-02-03T13:04:58.816Z,3.97
2023-02-03T13:06:30.148Z,4.08
2023-02-03T13:08:01.470Z,3.35
2023-02-03T13:09:33.049Z,3.70
2023-02-03T13:11:05.015Z,2.98
2023-02-03T13:12:36.351Z,3.13
2023-02-03T13:14:08.359Z,2.93
2023-02-03T13:15:39.682Z,3.34
2023-02-03T13:17:11.214Z,2.93
2023-02-03T13:18:42.505Z,2.17
2023-02-03T13:20:13.811Z,2.16
2023-02-03T13:21:45.140Z,2.14
2023-02-03T13:23:16.681Z,2.66
2023-02-03T13:24:48.110Z,2.42
2023-02-03T13:26:19.863Z,2.74
2023-02-03T13:27:56.459Z,3.16
2023-02-03T13:29:27.810Z,2.51
2023-02-03T13:30:59.280Z,2.51
2023-02-03T13:32:31.300Z,2.77
2023-02-03T13:34:02.731Z,2.68
2023-02-03T13:35:34.724Z,2.80
2023-02-03T13:37:32.758Z,2.78
2023-02-03T13:39:04.668Z,3.05
2023-02-03T13:41:06.414Z,2.36
2023-02-03T13:42:38.145Z,2.49
2023-02-03T13:44:10.007Z,2.98
2023-02-03T13:45:41.730Z,3.18
2023-02-03T13:47:13.261Z,2.95
2023-02-03T13:48:44.690Z,2.74
2023-02-03T13:50:16.144Z,2.82
2023-02-03T13:54:18.199Z,2.70
2023-02-03T13:55:59.742Z,3.07
2023-02-03T13:57:31.469Z,2.87
2023-02-03T13:59:02.864Z,3.21
2023-02-03T14:00:34.341Z,2.95
2023-02-03T14:02:06.967Z,2.74
2023-02-03T14:03:43.509Z,2.72
2023-02-03T14:05:36.247Z,2.74
2023-02-03T14:07:07.928Z,3.34
2023-02-03T14:08:39.291Z,3.50
2023-02-03T14:10:12.200Z,3.31
2023-02-03T14:11:45.895Z,2.82
2023-02-03T14:13:22.661Z,3.53
2023-02-03T14:14:54.112Z,2.89
2023-02-03T14:16:53.422Z,3.40
2023-02-03T14:18:26.340Z,3.22
2023-02-03T14:20:18.444Z,2.93
2023-02-03T14:22:05.833Z,2.82
2023-02-03T14:23:37.399Z,2.93
2023-02-03T14:25:14.053Z,3.05
2023-02-03T14:26:45.446Z,2.86
2023-02-03T14:28:16.869Z,3.90
2023-02-03T14:29:48.306Z,3.32
2023-02-03T14:31:19.704Z,3.28
2023-02-03T14:32:53.676Z,3.37
2023-02-03T14:34:52.550Z,3.01
2023-02-03T14:36:35.439Z,4.16
2023-02-03T14:38:17.282Z,3.76
2023-02-03T14:40:15.760Z,3.73
2023-02-03T14:41:47.406Z,4.03
2023-02-03T14:43:18.789Z,3.75
2023-02-03T14:45:34.602Z,3.32
2023-02-03T14:47:32.789Z,3.09
2023-02-03T14:49:44.413Z,4.28
2023-02-03T14:51:15.849Z,4.37
2023-02-03T14:52:47.322Z,4.13
2023-02-03T14:54:18.669Z,3.40
2023-02-03T14:55:50.054Z,3.76
2023-02-03T14:57:36.884Z,3.79
2023-02-03T15:01:40.682Z,3.88
2023-02-03T15:03:12.872Z,3.10
2023-02-03T15:04:44.200Z,3.34
2023-02-03T15:06:15.699Z,4.02
2023-02-03T15:07:47.415Z,5.08
2023-02-03T15:09:18.748Z,3.76
2023-02-03T15:10:50.067Z,3.60
2023-02-03T15:12:21.540Z,3.99
2023-02-03T15:13:53.015Z,3.66
2023-02-03T15:15:24.519Z,3.04
2023-02-03T15:16:55.945Z,3.41
2023-02-03T15:18:27.424Z,3.79
2023-02-03T15:19:58.838Z,4.16
2023-02-03T15:22:21.070Z,4.23
2023-02-03T15:23:53.133Z,4.10
2023-02-03T15:25:25.073Z,3.94
2023-02-03T15:26:56.560Z,3.58
2023-02-03T15:28:37.962Z,3.51
2023-02-03T15:30:09.450Z,3.59
2023-02-03T15:31:40.956Z,4.26
2023-02-03T15:33:12.380Z,4.03
2023-02-03T15:34:43.742Z,4.05
2023-02-03T15:36:15.243Z,3.80
2023-02-03T15:37:46.675Z,3.40
2023-02-03T15:39:18.143Z,4.18
2023-02-03T15:40:49.517Z,4.94
2023-02-03T15:42:20.925Z,4.65
2023-02-03T15:43:52.525Z,4.54
2023-02-03T15:45:23.843Z,3.99
2023-02-03T15:46:55.433Z,4.93
2023-02-03T15:48:26.845Z,4.73
2023-02-03T15:49:58.363Z,4.77
2023-02-03T15:51:29.723Z,3.85
2023-02-03T15:53:01.101Z,4.70
2023-02-03T15:54:32.389Z,3.65
2023-02-03T15:56:03.789Z,4.02
2023-02-03T15:57:35.036Z,4.32
2023-02-03T15:59:06.828Z,4.15
2023-02-03T16:00:38.131Z,4.49
2023-02-03T16:02:09.469Z,4.72
2023-02-03T16:03:41.260Z,4.62
2023-02-03T16:05:12.745Z,3.83
2023-02-03T16:06:44.201Z,3.87
2023-02-03T16:08:15.618Z,4.02
2023-02-03T16:09:47.488Z,3.98
2023-02-03T16:11:18.846Z,4.41
2023-02-03T16:12:50.132Z,3.37
2023-02-03T16:14:21.429Z,3.56
2023-02-03T16:15:52.860Z,4.41
2023-02-03T16:17:24.119Z,4.39
2023-02-03T16:18:55.540Z,4.17
2023-02-03T16:20:26.839Z,4.73
2023-02-03T16:21:58.126Z,4.22
2023-02-03T16:23:29.560Z,3.85
2023-02-03T16:25:01.014Z,3.75
2023-02-03T16:26:32.336Z,3.97
2023-02-03T16:28:03.619Z,3.88
2023-02-03T16:29:35.052Z,4.31
2023-02-03T16:31:06.455Z,4.12
2023-02-03T16:32:37.920Z,3.86
2023-02-03T16:34:09.204Z,4.63
2023-02-03T16:35:40.999Z,4.37
2023-02-03T16:37:12.452Z,4.43
2023-02-03T16:38:44.153Z,4.17
2023-02-03T16:40:16.266Z,4.78
2023-02-03T16:41:48.076Z,4.86
2023-02-03T16:43:19.320Z,5.11
2023-02-03T16:44:51.316Z,4.49
2023-02-03T16:46:22.839Z,4.47
2023-02-03T16:47:54.416Z,4.57
2023-02-03T16:49:25.912Z,4.97
2023-02-03T16:50:59.424Z,5.36
2023-02-03T16:52:31.090Z,3.36
2023-02-03T16:54:02.896Z,4.26
2023-02-03T16:55:34.590Z,4.65
2023-02-03T16:57:06.272Z,4.56
2023-02-03T16:58:37.813Z,4.37
2023-02-03T17:00:09.207Z,3.95
2023-02-03T17:01:40.638Z,4.70
2023-02-03T17:03:12.063Z,5.39
2023-02-03T17:04:43.390Z,4.31
2023-02-03T17:06:14.697Z,4.09
2023-02-03T17:07:46.111Z,4.56
2023-02-03T17:09:17.554Z,5.01
2023-02-03T17:10:48.931Z,4.83
2023-02-03T17:12:20.348Z,4.72
2023-02-03T17:14:09.428Z,4.64
2023-02-03T17:15:41.036Z,4.76
2023-02-03T17:17:17.741Z,5.21
2023-02-03T17:18:49.419Z,4.25
2023-02-03T17:20:20.677Z,4.92
2023-02-03T17:21:52.347Z,4.53
2023-02-03T17:23:24.035Z,4.29
2023-02-03T17:24:55.680Z,4.70
2023-02-03T17:26:38.285Z,4.25
2023-02-03T17:28:54.615Z,4.34
2023-02-03T17:30:26.402Z,3.36
2023-02-03T17:31:57.880Z,4.89
2023-02-03T17:33:29.285Z,4.85
2023-02-03T17:35:00.811Z,4.84
2023-02-03T17:36:32.472Z,4.82
2023-02-03T17:38:04.159Z,4.19
2023-02-03T17:54:35.995Z,4.56
2023-02-03T17:56:07.774Z,4.79
2023-02-03T17:57:39.383Z,5.08
2023-02-03T17:59:10.603Z,4.66
2023-02-03T18:01:15.755Z,4.83
2023-02-03T18:02:47.490Z,4.91
2023-02-03T18:04:19.099Z,5.48
2023-02-03T18:05:50.716Z,5.37
2023-02-03T18:07:22.502Z,4.56
2023-02-03T18:08:53.917Z,5.15
2023-02-03T18:10:25.326Z,4.71
2023-02-03T18:11:56.682Z,4.76
2023-02-03T18:13:27.957Z,4.17
2023-02-03T18:15:22.650Z,4.71
2023-02-03T18:16:56.463Z,4.07
2023-02-03T18:18:33.367Z,4.82
2023-02-03T18:20:05.064Z,4.65
2023-02-03T18:23:33.563Z,5.31
2023-02-03T18:25:05.084Z,5.11
2023-02-03T18:26:41.720Z,4.50
2023-02-03T18:28:13.281Z,4.67
2023-02-03T18:29:44.883Z,5.01
2023-02-03T18:31:16.464Z,5.48
2023-02-03T18:32:48.002Z,4.41
2023-02-03T18:34:20.055Z,4.74
2023-02-03T18:35:51.670Z,5.01
2023-02-03T18:37:23.247Z,4.54
2023-02-03T18:38:54.706Z,4.58
2023-02-03T18:40:26.247Z,5.49
2023-02-03T18:42:02.613Z,4.84
2023-02-03T18:43:33.950Z,4.34
2023-02-03T18:45:05.341Z,4.30
2023-02-03T18:46:36.837Z,4.00
2023-02-03T18:48:08.112Z,4.34
2023-02-03T18:49:39.333Z,5.22
2023-02-03T18:51:10.623Z,4.53
2023-02-03T18:52:42.033Z,5.43
2023-02-03T18:54:13.421Z,5.26
2023-02-03T18:55:44.716Z,5.29
2023-02-03T18:57:16.228Z,4.55
2023-02-03T18:58:47.695Z,4.16
2023-02-03T19:00:19.022Z,5.38
2023-02-03T19:01:50.407Z,5.38
2023-02-03T19:03:22.068Z,5.32
2023-02-03T19:04:53.555Z,4.84
2023-02-03T19:06:25.044Z,4.82
2023-02-03T19:07:57.065Z,4.58
2023-02-03T19:09:28.469Z,5.49
2023-02-03T19:10:59.720Z,5.24
2023-02-03T19:12:30.996Z,4.80
2023-02-03T19:14:05.393Z,5.43
2023-02-03T19:15:38.940Z,4.64
2023-02-03T19:17:10.312Z,4.89
2023-02-03T19:18:41.794Z,5.86
2023-02-03T19:20:13.042Z,5.42
2023-02-03T19:21:45.453Z,3.94
2023-02-03T19:23:16.761Z,4.96
2023-02-03T19:24:48.163Z,4.63
2023-02-03T19:26:19.428Z,5.39
2023-02-03T19:27:51.157Z,5.42
2023-02-03T19:29:22.658Z,5.86
2023-02-03T19:30:59.924Z,5.56
2023-02-03T19:32:34.324Z,5.16
2023-02-03T19:34:05.857Z,4.88
2023-02-03T19:35:37.153Z,4.59
2023-02-03T19:37:08.584Z,4.45
2023-02-03T19:38:39.896Z,5.11
2023-02-03T19:40:11.174Z,5.04
2023-02-03T19:41:42.434Z,4.38
2023-02-03T19:43:15.770Z,4.99
2023-02-03T19:44:47.106Z,4.60
2023-02-03T19:46:18.655Z,5.26
2023-02-03T19:47:50.001Z,4.45
2023-02-03T19:49:21.393Z,4.27
2023-02-03T19:50:53.072Z,4.86
2023-02-03T19:52:24.334Z,3.87
2023-02-03T19:53:55.904Z,4.30
2023-02-03T19:55:27.237Z,4.63
2023-02-03T19:56:58.562Z,4.90
2023-02-03T19:58:29.857Z,4.48
2023-02-03T20:00:01.247Z,5.41
2023-02-03T20:01:32.579Z,5.01
2023-02-03T20:03:03.977Z,5.27
2023-02-03T20:04:35.361Z,5.13
2023-02-03T20:06:06.629Z,4.50
2023-02-03T20:07:39.337Z,4.38
2023-02-03T20:09:10.697Z,3.70
2023-02-03T20:10:42.197Z,4.24
2023-02-03T20:12:13.488Z,4.23
2023-02-03T20:13:45.077Z,4.18
2023-02-03T20:15:16.526Z,4.95
2023-02-03T20:16:47.891Z,4.86
2023-02-03T20:18:19.205Z,4.49
2023-02-03T20:19:50.833Z,4.74
2023-02-03T20:21:38.134Z,5.12
2023-02-03T20:23:09.346Z,4.84
2023-02-03T20:24:40.576Z,4.14
2023-02-03T20:26:13.993Z,3.72
2023-02-03T20:27:45.603Z,4.66
2023-02-03T20:29:17.132Z,4.76
2023-02-03T20:30:48.793Z,5.31
2023-02-03T20:32:22.384Z,3.79
2023-02-03T20:33:53.877Z,4.42
2023-02-03T20:35:25.254Z,4.33
2023-02-03T20:36:57.021Z,4.37
2023-02-03T20:38:28.320Z,4.82
2023-02-03T20:39:59.774Z,5.48
2023-02-03T20:41:31.142Z,5.88
2023-02-03T20:43:02.402Z,5.17
2023-02-03T20:44:34.801Z,5.50
2023-02-03T20:46:11.076Z,4.63
2023-02-03T20:47:42.512Z,4.39
2023-02-03T20:49:13.801Z,4.24
2023-02-03T20:50:45.502Z,4.68
2023-02-03T20:52:17.186Z,4.58
2023-02-03T20:53:48.479Z,4.97
2023-02-03T20:55:20.069Z,4.56
2023-02-03T20:56:51.338Z,4.25
2023-02-03T20:58:22.627Z,4.28
2023-02-03T20:59:53.922Z,4.77